Weather at Victoria (Royal Jubilee Hospital) Heliport

Public forecast

Using degrees Celsius for public forecast. Weather courtesy of forecast.io.

Closest aviation weather report (METAR) to Victoria (Royal Jubilee Hospital) Heliport

Report is more than 2 hours old.

Closest report is Victoria Harbour Seaplane Base, 2.0 nm (3.6 km) WSW.

2024/05/20 04:00 (retrieved 2 hours ago)

CYWH 200400Z 23011KT 15SM FEW030 13/03 A3022 RMK SC1 LAST STFD OBS/NXT 201300Z SLP234

Closest aviation forecast (TAF) to Victoria (Royal Jubilee Hospital) Heliport

Forecast is more than 6 hours old.

Closest forecast is Victoria Harbour Seaplane Base, 2.0 nm (3.6 km) WSW.

2024/05/19 21:00 (retrieved 9 hours ago)

TAF CYWH 192046Z 1921/2004 19005KT P6SM SCT030 RMK NXT FCST BY 201400Z